Latest Coastal Weather Observations for Willis Island

IDQ60701

Issued at 7:42 am EST Saturday 7 March 2015 (issued every 10 minutes, with the page automatically refreshed every 10 minutes)

About coastal observations | Map of coastal stations | Coastal observations for QLD | Marine services | Other Formats
Station Details ID: 200283 Name: WILLIS ISLAND Lat: -16.29 Lon: 149.97 Height: 9.29 m
Data from the previous 72 hours. | See also: Recent months at Willis Island
Date/Time
EST
Temp

°C
Wind Pressure Rain
since 9am
mm
Weather Cloud Vis
km
Sea
Height
m
Swell
Dir
 
Speed
knots
Gust
knots
hPa Trend Height
m
Period
s
Dir
07/07:30am 28.3 ESE 14 16 1006.3 - 0.0 - - - - - - -
07/07:00am 28.3 SE 14 16 1006.0 - 0.0 - - - - - - -
07/06:30am 27.9 ESE 13 15 1005.6 - 0.0 - - - - - - -
07/06:00am 27.7 SE 13 15 1005.2 - 0.0 - - - - - - -
07/05:30am 27.7 SE 10 12 1005.0 - 0.0 - - - - - - -
07/05:00am 27.7 ESE 11 12 1004.9 - 0.0 - - - - - - -
07/04:30am 27.3 ESE 11 14 1004.8 - 0.0 - - - - - - -
07/04:00am 27.4 ESE 13 16 1004.6 - 0.0 - - - - - - -
07/03:30am 27.8 SE 9 10 1004.7 - 0.0 - - - - - - -
07/03:00am 27.9 ESE 7 9 1004.8 - 0.0 - - - - - - -
07/02:30am 28.3 E 9 11 1005.2 - 0.0 - - - - - - -
07/02:00am 28.2 ESE 7 8 1005.5 - 0.0 - - - - - - -
07/01:30am 28.0 ESE 7 8 1005.6 - 0.0 - - - - - - -
07/01:00am 28.1 SE 7 8 1005.8 - 0.0 - - - - - - -
07/12:30am 27.9 ESE 6 7 1005.8 - 0.0 - - - - - - -
07/12:00am 27.9 E 5 6 1006.0 - 0.0 - - - - - - -
 
Date/Time
EST
Temp

°C
Wind Pressure Rain
since 9am
mm
Weather Cloud Vis
km
Sea
Height
m
Swell
Dir
 
Speed
knots
Gust
knots
hPa Trend Height
m
Period
s
Dir
06/11:30pm 28.0 E 4 5 1006.0 - 0.0 - - - - - - -
06/11:00pm 27.9 CALM 0 4 1006.0 - 0.0 - - - - - - -
06/10:30pm 27.9 CALM 0 0 1006.0 - 0.0 - - - - - - -
06/10:00pm 27.8 CALM 0 3 1005.8 - 0.0 - - - - - - -
06/09:30pm 28.1 NE 5 6 1005.4 - 0.0 - - - - - - -
06/09:00pm 28.2 NE 5 7 1005.3 - 0.0 - - - - - - -
06/08:30pm 27.7 ESE 3 5 1005.4 - 0.0 - - - - - - -
06/08:00pm 27.9 SE 4 6 1005.2 - 0.0 - - - - - - -
06/07:30pm 28.0 SSE 9 11 1005.0 - 0.0 - - - - - - -
06/07:00pm 28.7 ESE 11 12 1005.0 - 0.0 - - - - - - -
06/06:30pm 28.6 SSE 6 7 1005.0 - 0.0 - - - - - - -
06/06:00pm 28.9 SE 6 8 1004.7 S 0.0 Distant precip. Mostly cloudy 40 <0.1 0.3 9 SE
06/05:30pm 29.2 SSE 7 8 1004.4 - 0.0 - - - - - - -
06/05:00pm 30.1 SSE 7 9 1004.3 - 0.0 - - - - - - -
06/04:30pm 29.3 SSW 6 11 1004.0 - 0.0 - - - - - - -
06/04:00pm 30.7 SSW 5 6 1003.8 - 0.0 - - - - - - -
06/03:30pm 30.8 S 5 7 1004.0 - 0.0 - - - - - - -
06/03:00pm 30.3 S 5 7 1004.0 F 0.0 Distant precip. Mostly cloudy 40 <0.1 0.3 8 SE
06/02:30pm 31.2 SSW 5 7 1004.3 - 0.0 - - - - - - -
06/02:00pm 30.9 SSE 4 5 1004.7 - 0.0 - - - - - - -
06/01:30pm 30.5 S 3 4 1004.9 - 0.0 - - - - - - -
06/01:00pm 30.5 S 4 5 1005.2 - 0.0 - - - - - - -
06/12:30pm 30.2 SSE 4 5 1005.8 - 0.0 - - - - - - -
06/12:00pm 30.6 SE 3 5 1006.1 R 0.0 Distant precip. Partly cloudy 40 <0.5 0.3 12 SE
06/11:30am 30.1 CALM 0 1 1006.4 - 0.0 - - - - - - -
06/11:00am 30.0 ESE 3 5 1006.6 - 0.0 - - - - - - -
06/10:30am 29.8 SSE 2 4 1006.9 - 0.0 - - - - - - -
06/10:00am 30.2 CALM 0 0 1007.0 - 0.0 - - - - - - -
06/09:30am 30.3 E 1 3 1007.1 - 0.0 - - - - - - -
06/09:00am 30.0 ESE 3 4 1006.8 R Trace Distant precip. Mostly clear 40 <0.5 0.3 8 SE
06/08:30am 29.9 ESE 4 5 1006.5 - - - - - - - - -
06/08:00am 29.7 ESE 4 5 1006.4 - - - - - - - - -
06/07:30am 29.6 SE 5 6 1006.2 - - - - - - - - -
06/07:00am 29.0 ESE 5 6 1005.6 - - - - - - - - -
06/06:30am 27.7 E 6 7 1005.3 - - - - - - - - -
06/06:00am 27.6 E 8 9 1005.2 - - - - - - - - -
06/05:30am 27.5 E 6 7 1005.0 - - - - - - - - -
06/05:00am 27.5 ESE 7 8 1005.0 - - - - - - - - -
06/04:30am 27.5 ESE 7 9 1005.0 - - - - - - - - -
06/04:00am 27.5 E 8 10 1004.8 - - - - - - - - -
06/03:30am 27.5 ESE 8 11 1004.7 - - - - - - - - -
06/03:00am 27.6 SE 10 12 1005.0 - 0.0 - - - - - - -
06/02:30am 27.6 SE 9 10 1005.4 - - - - - - - - -
06/02:00am 27.7 SE 10 11 1005.6 - - - - - - - - -
06/01:30am 27.6 SE 9 10 1006.0 - - - - - - - - -
06/01:00am 27.8 SE 10 11 1006.4 - - - - - - - - -
06/12:30am 27.8 SE 10 12 1007.0 - - - - - - - - -
06/12:00am 27.7 SE 10 12 1007.2 - - - - - - - - -
 
Date/Time
EST
Temp

°C
Wind Pressure Rain
since 9am
mm
Weather Cloud Vis
km
Sea
Height
m
Swell
Dir
 
Speed
knots
Gust
knots
hPa Trend Height
m
Period
s
Dir
05/11:30pm 27.8 ESE 9 10 1007.7 - - - - - - - - -
05/11:00pm 27.8 SE 9 11 1007.9 - - - - - - - - -
05/10:30pm 27.8 SE 10 11 1007.9 - - - - - - - - -
05/10:00pm 27.9 SSE 13 15 1007.7 - - - - - - - - -
05/09:30pm 28.0 SE 14 16 1007.5 - - - - - - - - -
05/09:00pm 27.8 SE 15 17 1007.4 - 0.0 - - - - - - -
05/08:30pm 27.7 S 13 16 1007.2 - - - - - - - - -
05/08:00pm 28.2 SSE 11 14 1007.0 - - - - - - - - -
05/07:30pm 28.2 SSE 12 13 1006.7 - - - - - - - - -
05/07:00pm 28.4 SSE 11 12 1006.2 - - - - - - - - -
05/06:30pm 28.4 SSE 10 11 1005.9 - - - - - - - - -
05/06:00pm 28.6 SSE 7 9 1005.7 F - Distant precip. Partly cloudy 40 1 0.5 5 E
05/05:30pm 29.3 SE 8 9 1005.4 - - - - - - - - -
05/05:00pm 29.6 SE 9 10 1005.5 - - - - - - - - -
05/04:30pm 29.8 SE 7 9 1005.4 - - - - - - - - -
05/04:00pm 29.8 SE 8 9 1005.4 - - - - - - - - -
05/03:30pm 29.9 ESE 8 10 1005.5 - - - - - - - - -
05/03:00pm 30.6 SE 10 12 1005.7 F 0.0 Fine Mostly cloudy 40 1 0.5 5 E
05/02:30pm 30.4 SE 11 13 1006.1 - - - - - - - - -
05/02:00pm 30.5 SE 11 13 1006.3 - - - - - - - - -
05/01:30pm 29.8 SE 13 15 1006.8 - - - - - - - - -
05/12:30pm 30.6 SE 11 13 1007.7 - 0.0 - - - - - - -
05/12:00pm 30.2 ESE 10 12 1007.8 F 0.0 Fine Partly cloudy 40 1 0.5 6 E
05/11:30am 29.6 SSE 11 12 1008.2 - 0.0 - - - - - - -
05/11:00am 30.2 SE 10 12 1008.7 - 0.0 - - - - - - -
05/10:30am 30.1 ESE 9 11 1009.0 - 0.0 - - - - - - -
05/10:00am 29.9 ESE 12 15 1009.5 - 0.0 - - - - - - -
05/09:30am 29.9 ESE 13 15 1009.5 - 0.0 - - - - - - -
05/09:00am 30.0 ESE 10 11 1009.4 F 4.2 Distant precip. Partly cloudy 40 1 0.6 8 E
05/08:30am 29.5 ESE 12 14 1009.3 - 4.2 - - - - - - -
05/08:00am 28.6 ESE 12 15 1009.4 - 4.2 - - - - - - -
05/07:30am 27.8 ESE 11 11 1009.1 - 4.2 - - - - - - -
05/07:00am 26.9 SE 13 16 1008.5 - 4.2 - - - - - - -
05/06:30am 27.8 ESE 9 11 1008.2 - 4.2 - - - - - - -
05/06:00am 27.5 ESE 9 10 1008.0 - 4.2 - - - - - - -
05/05:30am 27.4 ESE 9 11 1007.5 - 4.2 - - - - - - -
05/05:00am 27.0 ESE 12 14 1007.3 - 4.2 - - - - - - -
05/04:30am 27.6 E 11 14 1007.0 - 4.2 - - - - - - -
05/04:00am 27.6 ESE 13 15 1006.9 - 4.2 - - - - - - -
05/03:30am 27.4 ESE 13 15 1007.0 - 4.2 - - - - - - -
05/03:00am 27.5 SE 11 13 1007.0 - 4.2 - - - - - - -
05/02:30am 27.5 ESE 12 14 1007.2 - 4.2 - - - - - - -
05/02:00am 27.4 SE 14 16 1007.5 - 4.2 - - - - - - -
05/01:30am 26.5 ESE 10 14 1007.8 - 4.2 - - - - - - -
05/01:00am 28.0 ESE 13 15 1008.1 - 0.0 - - - - - - -
05/12:30am 28.1 SE 15 17 1008.5 - 0.0 - - - - - - -
05/12:00am 28.1 SE 15 17 1008.9 - 0.0 - - - - - - -
 
Date/Time
EST
Temp

°C
Wind Pressure Rain
since 9am
mm
Weather Cloud Vis
km
Sea
Height
m
Swell
Dir
 
Speed
knots
Gust
knots
hPa Trend Height
m
Period
s
Dir
04/11:30pm 28.1 ESE 16 19 1008.9 - 0.0 - - - - - - -
04/11:00pm 28.1 ESE 15 17 1009.1 - 0.0 - - - - - - -
04/10:30pm 28.2 SE 15 18 1009.4 - 0.0 - - - - - - -
04/10:00pm 28.2 ESE 15 17 1009.2 - 0.0 - - - - - - -
04/09:30pm 28.2 SE 15 17 1009.3 - 0.0 - - - - - - -
04/09:00pm 28.2 SE 15 16 1009.1 - 0.0 - - - - - - -
04/08:30pm 28.3 SE 14 17 1008.9 - 0.0 - - - - - - -
04/08:00pm 28.5 SE 14 17 1008.7 - 0.0 - - - - - - -
04/07:30pm 28.3 SE 11 14 1008.7 - 0.0 - - - - - - -
04/07:00pm 28.3 SE 12 13 1008.3 - 0.0 - - - - - - -
04/06:30pm 28.4 SE 12 14 1007.8 - 0.0 - - - - - - -
04/06:00pm 28.6 ESE 13 14 1007.7 R 0.0 Distant precip. Partly cloudy 35 1 0.8 8 E
04/05:30pm 29.0 ESE 12 16 1007.3 - 0.0 - - - - - - -
04/05:00pm 29.4 SE 12 15 1007.1 - 0.0 - - - - - - -
04/04:30pm 29.6 ESE 13 15 1007.0 - 0.0 - - - - - - -
04/04:00pm 30.0 ESE 13 15 1006.9 - 0.0 - - - - - - -
04/03:30pm 30.1 ESE 14 17 1006.8 - 0.0 - - - - - - -
04/03:00pm 30.6 ESE 13 16 1006.9 F 0.0 Fine Mostly clear 40 1 0.6 8 E
04/02:30pm 30.6 ESE 13 16 1007.2 - 0.0 - - - - - - -
04/02:00pm 30.5 ESE 14 16 1007.6 - 0.0 - - - - - - -
04/01:30pm 30.9 ESE 12 14 1008.0 - 0.0 - - - - - - -
04/01:00pm 30.9 ESE 13 15 1008.3 - 0.0 - - - - - - -
04/12:30pm 30.4 ESE 13 15 1008.9 - 0.0 - - - - - - -
04/12:00pm 30.6 ESE 14 17 1009.2 R 0.0 Fine Mostly clear 40 1 1.0 8 SE
04/11:30am 30.7 ESE 14 16 1009.4 - 0.0 - - - - - - -
04/11:00am 30.4 ESE 15 18 1009.6 - 0.0 - - - - - - -
04/10:30am 30.0 ESE 16 19 1009.7 - 0.0 - - - - - - -
04/10:00am 30.1 E 15 18 1009.8 - 0.0 - - - - - - -
04/09:30am 30.1 ESE 15 18 1009.8 - 0.0 - - - - - - -
04/09:00am 29.7 ESE 15 17 1009.8 R 0.0 Fine Mostly clear 40 1 1.0 8 SE
04/08:30am 29.7 ESE 15 18 1009.4 - 0.0 - - - - - - -
04/08:00am 29.2 ESE 15 17 1009.1 - 0.0 - - - - - - -

Other Formats:

Comma delimited format used in spreadsheet applications
http://www.bom.gov.au/fwo/IDQ60701/IDQ60701.94299.axf

JavaScript Object Notation format (JSON) in row-major order
http://www.bom.gov.au/fwo/IDQ60701/IDQ60701.94299.json